• Join FlightAware (Why Join?)
  • Login
  • US Flag 
02:02AM EDT


 

Airport Tracker/Info


-or-


 

Live Flight TrackerFlight Track Log ✈ N4998J ✈ 27-Apr-2014 ✈ KIAG - KLNS

Flight Track Log - Related Links

Times and Time Zones

All times are in EDT time to prevent confusion due to time zone crossing. See the N4998J flight status page for this flight to view local times or setup timezone preferences in your user account.

Time Position Orientation Groundspeed Altitude Reporting Facility
EDT Latitude Longitude Course Direction KTS MPH feet Rate Location/Type
03:25PM 43.1167 -78.9333 36° Northeast 82 94 900  Level Buffalo TRACON
03:26PM 43.1333 -78.9167 36° Northeast 67 77 1,500 540 Climbing Buffalo TRACON
03:27PM 43.1333 -78.8833 90° East 88 101 2,000 360 Climbing Buffalo TRACON
03:28PM 43.1167 -78.8667 144° Southeast 96 110 2,300 420 Climbing Buffalo TRACON
03:29PM 43.0833 -78.8500 160° South 90 104 2,800 420 Climbing Buffalo TRACON
03:30PM 43.0667 -78.8333 144° Southeast 92 106 3,200 480 Climbing Buffalo TRACON
03:31PM 43.0333 -78.8333 180° South 95 109 3,800 660 Climbing Buffalo TRACON
03:32PM 43.0167 -78.8167 144° Southeast 98 113 4,600 600 Climbing Buffalo TRACON
03:32PM 42.9833 -78.8167 180° South 94 108 5,000 420 Climbing Buffalo TRACON
03:33PM 42.9781 -78.8142 161° South 94 108 5,200 420 Climbing Cleveland Center
03:34PM 42.9500 -78.8128 178° South 94 108 5,700 480 Climbing Cleveland Center
03:35PM 42.9208 -78.8069 172° South 99 114 6,300 480 Climbing Cleveland Center
03:36PM 42.8922 -78.8056 178° South 99 114 6,800 420 Climbing Cleveland Center
03:37PM 42.8642 -78.7922 161° South 99 114 7,200 360 Climbing Cleveland Center
03:38PM 42.8369 -78.7836 167° South 100 115 7,600 360 Climbing Cleveland Center
03:39PM 42.8067 -78.7794 174° South 103 119 8,000 180 Climbing Cleveland Center
03:40PM 42.7711 -78.7772 177° South 118 136 8,000  Level Cleveland Center
03:41PM 42.7303 -78.7619 165° South 142 163 8,000  Level Cleveland Center
03:42PM 42.6892 -78.7536 172° South 142 163 8,000  Level Cleveland Center
03:43PM 42.6472 -78.7486 175° South 143 165 8,000  Level Cleveland Center
03:44PM 42.6067 -78.7344 166° South 143 165 8,000  Level Cleveland Center
03:45PM 42.5683 -78.7242 169° South 144 166 8,000  Level Cleveland Center
03:46PM 42.5278 -78.7150 171° South 142 163 8,000  Level Cleveland Center
03:47PM 42.4875 -78.7058 170° South 142 163 8,000  Level Cleveland Center
03:48PM 42.4450 -78.6958 170° South 143 165 8,000  Level Cleveland Center
03:50PM 42.4061 -78.6881 172° South 143 165 8,000  Level Cleveland Center
03:51PM 42.3681 -78.6733 164° South 143 165 8,000  Level Cleveland Center
03:52PM 42.3306 -78.6533 158° South 143 165 8,000  Level Cleveland Center
03:53PM 42.2936 -78.6358 161° South 143 165 8,000  Level Cleveland Center
03:54PM 42.2561 -78.6211 164° South 143 165 8,000  Level Cleveland Center
03:55PM 42.2122 -78.5967 158° South 143 165 8,000  Level Cleveland Center
03:56PM 42.1739 -78.5903 173° South 143 165 8,000  Level Cleveland Center
03:57PM 42.1372 -78.5706 158° South 143 165 8,000  Level Cleveland Center
03:58PM 42.0997 -78.5522 160° South 143 165 8,000  Level Cleveland Center
03:59PM 42.0536 -78.5308 161° South 143 165 8,000  Level Cleveland Center
04:00PM 42.0167 -78.5117 159° South 143 165 8,000  Level Cleveland Center
04:01PM 41.9789 -78.4939 161° South 143 165 8,000  Level Cleveland Center
04:02PM 41.9403 -78.4775 162° South 144 166 8,000 -60 Level Cleveland Center
04:03PM 41.9031 -78.4547 156° South 144 166 7,900 -60 Descending Cleveland Center
04:04PM 41.8572 -78.4344 162° South 145 167 7,900  Level Cleveland Center
04:05PM 41.8189 -78.4169 161° South 145 167 7,900  Level Cleveland Center
04:06PM 41.7808 -78.3986 160° South 145 167 7,900  Level Cleveland Center
04:07PM 41.7439 -78.3794 159° South 145 167 7,900  Level Cleveland Center
04:08PM 41.7064 -78.3589 158° South 145 167 7,900  Level Cleveland Center
04:09PM 41.6594 -78.3369 161° South 146 168 7,900  Level Cleveland Center
04:10PM 41.6208 -78.3200 162° South 146 168 7,900  Level Cleveland Center
04:11PM 41.5814 -78.3028 162° South 146 168 7,900  Level Cleveland Center
04:12PM 41.5425 -78.2847 161° South 146 168 7,900  Level Cleveland Center
04:13PM 41.5033 -78.2694 164° South 146 168 7,900  Level Cleveland Center
04:14PM 41.4647 -78.2514 161° South 147 169 8,000  Climbing Cleveland Center
04:15PM 41.4183 -78.2269 158° South 147 169 8,000  Level Cleveland Center
04:16PM 41.3792 -78.2122 164° South 147 169 8,000  Level Cleveland Center
04:17PM 41.3408 -78.1961 162° South 147 169 8,000  Level Cleveland Center
04:18PM 41.3033 -78.1756 158° South 147 169 8,000  Level Cleveland Center
04:20PM 41.2650 -78.1556 159° South 147 169 8,000  Level Cleveland Center
04:21PM 41.2278 -78.1136 140° Southeast 147 169 8,000  Level Cleveland Center
04:22PM 41.1992 -78.0769 136° Southeast 147 169 8,100  Climbing Cleveland Center
04:23PM 41.1706 -78.0381 134° Southeast 146 168 8,000 -60 Descending Cleveland Center
04:24PM 41.1378 -78.0083 146° Southeast 146 168 8,000  Level Cleveland Center
04:25PM 41.1069 -77.9764 142° Southeast 145 167 8,000  Level Cleveland Center
04:26PM 41.0783 -77.9394 136° Southeast 144 166 8,000  Level Cleveland Center
04:27PM 41.0425 -77.9017 142° Southeast 141 162 8,000  Level Cleveland Center
04:28PM 41.0114 -77.8667 140° Southeast 142 163 8,100  Climbing Cleveland Center
04:30PM 40.9469 -77.7908 138° Southeast 145 167 8,000 -60 Descending New York Center
04:31PM 40.9133 -77.7625 147° Southeast 145 167 8,000  Level New York Center
04:32PM 40.8867 -77.7214 131° Southeast 145 167 8,000  Level New York Center
04:33PM 40.8572 -77.6881 139° Southeast 145 167 8,100  Climbing New York Center
04:34PM 40.8278 -77.6578 142° Southeast 150 173 8,100 -60 Level New York Center
04:35PM 40.7942 -77.6242 143° Southeast 150 173 8,000 -120 Descending New York Center
04:36PM 40.7628 -77.5936 144° Southeast 150 173 7,900  Descending New York Center
04:37PM 40.7292 -77.5600 143° Southeast 145 167 8,100 -300 Climbing New York Center
04:38PM 40.7019 -77.5244 135° Southeast 145 167 7,400 -600 Descending New York Center
04:39PM 40.6722 -77.4969 145° Southeast 145 167 6,900 -180 Descending New York Center
04:40PM 40.6511 -77.4647 131° Southeast 139 160 7,100  Climbing New York Center
04:41PM 40.6261 -77.4297 133° Southeast 134 154 7,000  Descending New York Center
04:42PM 40.5986 -77.3969 138° Southeast 134 154 7,100 60 Climbing New York Center
04:43PM 40.5753 -77.3672 136° Southeast 134 154 7,200 300 Climbing New York Center
04:44PM 40.5497 -77.3403 141° Southeast 123 142 7,800 360 Climbing New York Center
04:45PM 40.5239 -77.3186 147° Southeast 123 142 8,000 120 Climbing New York Center
04:46PM 40.4903 -77.2853 143° Southeast 131 151 8,100  Climbing New York Center
04:47PM 40.4647 -77.2558 139° Southeast 136 157 8,000 -60 Descending New York Center
04:48PM 40.4294 -77.2169 140° Southeast 148 170 8,000  Level New York Center
04:49PM 40.4017 -77.1925 146° Southeast 148 170 8,000  Level New York Center
04:50PM 40.3703 -77.1542 137° Southeast 148 170 8,100 -60 Climbing New York Center
04:51PM 40.3453 -77.1164 131° Southeast 143 165 7,900 -240 Descending New York Center
04:53PM 40.3022 -77.0691 140° Southeast  Level FlightAware Approximate
05:00PM 40.2249 -76.7493 102° East  Level FlightAware Approximate
05:01PM 40.2171 -76.7023 102° East  Level FlightAware Approximate
05:02PM 40.2005 -76.6596 118° Southeast  Level FlightAware Approximate
05:03PM 40.1835 -76.6171 118° Southeast  Level FlightAware Approximate
05:04PM 40.1760 -76.5706 108° East  Level FlightAware Approximate
05:05PM 40.1646 -76.5250 108° East  Level FlightAware Approximate
05:06PM 40.1532 -76.4794 108° East  Level FlightAware Approximate
05:07PM 40.1444 -76.4329 102° East  Level FlightAware Approximate
05:08PM 40.1366 -76.3861 102° East  Level FlightAware Approximate
05:09PM 40.1279 -76.3395 105° East  Level FlightAware Approximate
05:10PM 40.1186 -76.2931 105° East  Level FlightAware Approximate
05:11PM 40.1167 -76.2833 105° East  Level FlightAware Approximate
05:12PM 40.1224 -76.2944 217° Southwest  Level Estimated
05:13PM 40.1224 -76.2944 105° East  Level Estimated
05:14PM 40.1224 -76.2944 124° Southeast  Level Estimated
05:15PM 40.1224 -76.2944 105° East  Level Estimated
05:16PM 40.1224 -76.2944 124° Southeast  Level Estimated
05:17PM 40.1224 -76.2944 105° East  Level Estimated
05:18PM 40.1224 -76.2944 124° Southeast  Level Estimated
05:19PM 40.1224 -76.2944 105° East  Level Estimated
05:20PM 40.1224 -76.2944 124° Southeast  Level Estimated
05:21PM 40.1224 -76.2944 105° East  Level Estimated
05:22PM 40.1224 -76.2944 124° Southeast  Level Estimated
05:23PM 40.1224 -76.2944 105° East  Level Estimated
05:24PM 40.1224 -76.2944 124° Southeast  Level Estimated
05:25PM 40.1224 -76.2944 105° East  Level Estimated